createdAt,value
2022-12-19T00:00:50.923Z,31.00
2022-12-19T00:06:04.862Z,37.10
2022-12-19T00:11:08.114Z,25.70
2022-12-19T00:16:18.931Z,30.20
2022-12-19T00:21:25.033Z,29.60
2022-12-19T00:26:30.771Z,32.50
2022-12-19T00:31:36.335Z,34.90
2022-12-19T00:36:39.784Z,36.30
2022-12-19T00:41:43.465Z,32.80
2022-12-19T00:46:52.748Z,31.80
2022-12-19T00:51:58.131Z,32.50
2022-12-19T00:57:01.339Z,27.40
2022-12-19T01:02:04.611Z,29.70
2022-12-19T01:07:08.470Z,32.20
2022-12-19T01:12:30.805Z,37.90
2022-12-19T01:17:44.169Z,40.70
2022-12-19T01:22:50.795Z,38.50
2022-12-19T01:27:55.308Z,34.70
2022-12-19T01:32:59.756Z,35.90
2022-12-19T01:38:07.882Z,36.80
2022-12-19T01:43:15.041Z,35.10
2022-12-19T01:48:44.059Z,41.90
2022-12-19T01:53:57.095Z,50.70
2022-12-19T01:59:07.049Z,50.70
2022-12-19T02:04:13.977Z,46.60
2022-12-19T02:09:17.845Z,40.10
2022-12-19T02:14:21.481Z,36.60
2022-12-19T02:19:49.862Z,33.10
2022-12-19T02:25:11.881Z,33.00
2022-12-19T02:30:37.852Z,33.40
2022-12-19T02:35:47.282Z,40.00
2022-12-19T02:41:19.033Z,40.20
2022-12-19T02:51:27.789Z,40.10
2022-12-19T02:56:47.716Z,37.10
2022-12-19T03:02:04.417Z,37.40
2022-12-19T03:07:22.971Z,34.70
2022-12-19T03:13:19.103Z,34.50
2022-12-19T03:18:24.413Z,35.90
2022-12-19T03:23:29.156Z,33.40
2022-12-19T03:29:04.089Z,30.70
2022-12-19T03:34:22.189Z,36.40
2022-12-19T03:39:27.015Z,43.30
2022-12-19T03:44:35.244Z,38.40
2022-12-19T03:49:38.884Z,36.30
2022-12-19T03:54:50.494Z,38.40
2022-12-19T04:00:11.339Z,38.00
2022-12-19T04:05:26.779Z,42.40
2022-12-19T04:10:30.713Z,37.80
2022-12-19T04:15:56.383Z,40.00
2022-12-19T04:21:06.845Z,39.60
2022-12-19T04:26:12.066Z,38.70
2022-12-19T04:31:16.694Z,35.50
2022-12-19T04:36:19.972Z,36.60
2022-12-19T04:41:23.084Z,41.50
2022-12-19T04:46:26.180Z,36.50
2022-12-19T04:51:29.328Z,35.70
2022-12-19T04:56:32.423Z,38.00
2022-12-19T05:01:35.620Z,42.80
2022-12-19T05:06:38.804Z,39.30
2022-12-19T05:11:41.968Z,39.20
2022-12-19T05:16:45.085Z,44.00
2022-12-19T05:21:48.212Z,36.80
2022-12-19T05:26:51.464Z,38.80
2022-12-19T05:31:54.566Z,34.60
2022-12-19T05:36:57.681Z,44.00
2022-12-19T05:42:01.267Z,42.40
2022-12-19T05:47:04.503Z,39.40
2022-12-19T05:52:07.573Z,39.60
2022-12-19T05:57:11.330Z,41.80
2022-12-19T06:02:14.496Z,42.40
2022-12-19T06:07:20.847Z,41.70
2022-12-19T06:12:24.696Z,46.10
2022-12-19T06:17:27.848Z,43.70
2022-12-19T06:22:31.671Z,47.10
2022-12-19T06:27:34.924Z,44.70
2022-12-19T06:32:38.525Z,46.70
2022-12-19T06:37:41.755Z,46.50
2022-12-19T06:42:47.743Z,47.10
2022-12-19T06:47:50.879Z,47.30
2022-12-19T06:52:54.112Z,47.50
2022-12-19T06:57:57.226Z,49.10
2022-12-19T07:03:01.008Z,42.60
2022-12-19T07:08:05.109Z,47.70
2022-12-19T07:13:08.221Z,50.90
2022-12-19T07:18:11.435Z,39.70
2022-12-19T07:23:18.809Z,47.90
2022-12-19T07:28:22.107Z,51.60
2022-12-19T07:33:25.288Z,48.10
2022-12-19T07:38:28.587Z,45.80
2022-12-19T07:43:31.817Z,47.30
2022-12-19T07:48:34.977Z,45.50
2022-12-19T07:53:38.090Z,48.20
2022-12-19T07:58:41.689Z,48.80
2022-12-19T08:03:44.935Z,52.70
2022-12-19T08:08:48.448Z,43.10
2022-12-19T08:13:51.581Z,47.50
2022-12-19T08:18:55.887Z,43.90
2022-12-19T08:24:00.620Z,50.50
2022-12-19T08:29:04.375Z,45.10
2022-12-19T08:34:07.517Z,42.50
2022-12-19T08:39:11.712Z,50.10
2022-12-19T08:44:15.620Z,46.30
2022-12-19T08:49:19.653Z,46.80
2022-12-19T08:54:23.043Z,42.90
2022-12-19T08:59:31.147Z,50.80
2022-12-19T09:05:03.643Z,47.30
2022-12-19T09:10:00.395Z,39.90
2022-12-19T09:15:04.022Z,43.60
2022-12-19T09:20:07.691Z,43.80
2022-12-19T09:25:11.218Z,47.10
2022-12-19T09:30:14.461Z,45.10
2022-12-19T09:35:17.622Z,51.20
2022-12-19T09:40:20.933Z,45.70
2022-12-19T09:45:41.404Z,44.30
2022-12-19T09:51:09.717Z,45.00
2022-12-19T09:56:16.193Z,43.90
2022-12-19T10:01:26.495Z,46.10
2022-12-19T10:07:11.013Z,48.00
2022-12-19T10:12:43.864Z,48.50
2022-12-19T10:18:18.178Z,41.70
2022-12-19T10:24:10.167Z,33.50
2022-12-19T10:29:45.216Z,45.50
2022-12-19T10:34:53.227Z,39.70
2022-12-19T10:40:27.781Z,39.10
2022-12-19T10:45:38.994Z,39.70
2022-12-19T10:50:43.720Z,40.90
2022-12-19T10:55:49.998Z,39.70
2022-12-19T11:01:05.468Z,51.10
2022-12-19T11:06:37.729Z,36.40
2022-12-19T11:12:43.400Z,27.60
2022-12-19T11:25:01.787Z,43.10
2022-12-19T11:29:42.410Z,38.50
2022-12-19T11:30:41.366Z,36.50
2022-12-19T11:33:18.909Z,34.40
2022-12-19T11:38:37.857Z,39.60
2022-12-19T11:43:56.696Z,39.80
2022-12-19T11:49:24.715Z,40.00
2022-12-19T11:54:40.139Z,35.90
2022-12-19T11:59:43.288Z,44.50
2022-12-19T12:05:04.570Z,42.00
2022-12-19T12:16:10.774Z,35.40
2022-12-19T12:26:55.069Z,33.60
2022-12-19T12:31:27.995Z,35.10
2022-12-19T12:32:05.063Z,32.50
2022-12-19T12:35:51.509Z,36.10
2022-12-19T12:39:20.955Z,38.00
2022-12-19T12:44:33.371Z,39.50
2022-12-19T12:49:46.083Z,42.60
2022-12-19T12:54:50.675Z,41.70
2022-12-19T13:00:24.943Z,39.90
2022-12-19T13:05:46.347Z,42.60
2022-12-19T13:10:59.582Z,40.70
2022-12-19T13:16:41.553Z,37.50
2022-12-19T13:22:03.853Z,36.00
2022-12-19T13:27:19.095Z,33.20
2022-12-19T13:32:23.951Z,33.90
2022-12-19T13:39:59.349Z,29.30
2022-12-19T13:43:25.050Z,37.10
2022-12-19T13:53:55.907Z,50.90
2022-12-19T13:59:04.842Z,44.90
2022-12-19T14:04:22.576Z,45.20
2022-12-19T14:11:29.237Z,41.00
2022-12-19T14:15:16.337Z,43.00
2022-12-19T14:22:01.774Z,44.90
2022-12-19T14:28:26.361Z,44.80
2022-12-19T14:31:19.646Z,46.80
2022-12-19T14:36:27.812Z,44.90
2022-12-19T14:42:03.983Z,51.20
2022-12-19T14:51:51.680Z,45.30
2022-12-19T14:54:31.032Z,39.70
2022-12-19T14:58:55.580Z,45.90
2022-12-19T15:04:51.396Z,51.90
2022-12-19T15:11:06.500Z,53.80
2022-12-19T15:15:06.883Z,44.50
2022-12-19T15:20:11.495Z,49.20
2022-12-19T15:25:43.955Z,49.80
2022-12-19T15:30:42.460Z,48.20
2022-12-19T15:35:45.610Z,53.70
2022-12-19T15:40:49.257Z,54.60
2022-12-19T15:45:59.306Z,47.70
2022-12-19T15:51:02.434Z,48.50
2022-12-19T15:56:10.863Z,53.70
2022-12-19T16:01:14.118Z,52.70
2022-12-19T16:06:17.265Z,46.60
2022-12-19T16:11:23.755Z,44.00
2022-12-19T16:16:27.012Z,47.50
2022-12-19T16:21:34.227Z,60.00
2022-12-19T16:26:40.565Z,53.10
2022-12-19T16:31:43.725Z,52.10
2022-12-19T16:36:46.980Z,56.80
2022-12-19T16:41:50.563Z,56.00
2022-12-19T16:46:53.769Z,55.50
2022-12-19T16:51:56.931Z,57.40
2022-12-19T16:57:00.563Z,62.10
2022-12-19T17:02:38.524Z,56.90
2022-12-19T17:07:42.097Z,55.80
2022-12-19T17:12:46.273Z,51.20
2022-12-19T17:17:49.948Z,53.40
2022-12-19T17:22:53.418Z,52.70
2022-12-19T17:27:56.755Z,58.50
2022-12-19T17:32:59.869Z,63.60
2022-12-19T17:38:04.024Z,59.90
2022-12-19T17:43:08.199Z,63.50
2022-12-19T17:48:28.272Z,63.90
2022-12-19T17:53:31.469Z,65.40
2022-12-19T17:58:34.700Z,69.40
2022-12-19T18:03:37.908Z,54.80
2022-12-19T18:08:41.274Z,58.60
2022-12-19T18:13:44.812Z,60.00
2022-12-19T18:18:48.096Z,60.90
2022-12-19T18:23:51.334Z,60.20
2022-12-19T18:28:54.784Z,59.20
2022-12-19T18:34:07.005Z,59.70
2022-12-19T18:39:32.269Z,61.10
2022-12-19T18:44:35.427Z,64.20
2022-12-19T18:49:38.564Z,79.50
2022-12-19T18:54:43.437Z,76.10
2022-12-19T18:59:48.741Z,74.60
2022-12-19T19:04:53.543Z,70.70
2022-12-19T19:09:56.977Z,65.90
2022-12-19T19:15:22.211Z,67.70
2022-12-19T19:20:27.952Z,64.20
2022-12-19T19:25:32.143Z,59.10
2022-12-19T19:30:37.829Z,56.30
2022-12-19T19:35:45.024Z,63.70
2022-12-19T19:40:48.198Z,61.80
2022-12-19T19:45:51.335Z,62.70
2022-12-19T19:50:54.609Z,59.70
2022-12-19T19:56:00.872Z,59.20
2022-12-19T20:01:12.126Z,79.30
2022-12-19T20:06:15.371Z,81.00
2022-12-19T20:11:18.548Z,60.20
2022-12-19T20:16:21.773Z,62.60
2022-12-19T20:21:25.052Z,74.30
2022-12-19T20:26:28.276Z,88.30
2022-12-19T20:31:32.580Z,91.30
2022-12-19T20:36:35.930Z,83.90
2022-12-19T20:41:39.061Z,97.50
2022-12-19T20:46:42.263Z,66.40
2022-12-19T20:51:47.828Z,74.60
2022-12-19T20:56:51.721Z,69.10
2022-12-19T21:01:56.572Z,63.00
2022-12-19T21:06:59.837Z,61.60
2022-12-19T21:12:03.469Z,59.50
2022-12-19T21:17:06.752Z,61.60
2022-12-19T21:22:09.894Z,60.30
2022-12-19T21:27:13.127Z,60.70
2022-12-19T21:32:19.063Z,63.10
2022-12-19T21:37:24.395Z,54.90
2022-12-19T21:42:27.670Z,67.40
2022-12-19T21:47:30.849Z,66.10
2022-12-19T21:52:33.980Z,61.20
2022-12-19T21:57:41.134Z,65.80
2022-12-19T22:03:12.156Z,59.90
2022-12-19T22:08:11.152Z,52.10
2022-12-19T22:13:14.267Z,60.50
2022-12-19T22:18:17.671Z,61.90
2022-12-19T22:23:20.787Z,70.80
2022-12-19T22:28:23.948Z,62.60
2022-12-19T22:33:27.762Z,58.00
2022-12-19T22:38:30.931Z,55.70
2022-12-19T22:43:35.686Z,56.20
2022-12-19T22:48:39.992Z,59.10
2022-12-19T22:53:43.684Z,61.00
2022-12-19T22:58:50.369Z,55.70
2022-12-19T23:03:56.109Z,53.30
2022-12-19T23:09:00.268Z,67.70
2022-12-19T23:14:05.793Z,60.70
2022-12-19T23:19:09.637Z,55.80
2022-12-19T23:24:13.088Z,57.40
2022-12-19T23:29:16.432Z,50.90
2022-12-19T23:34:19.576Z,50.90
2022-12-19T23:39:22.726Z,51.40
2022-12-19T23:44:25.900Z,48.90
2022-12-19T23:49:29.073Z,57.30
2022-12-19T23:54:32.185Z,58.40
2022-12-19T23:59:35.386Z,53.60
